Latest Weather Observations for Ballarat

IDV60801

Issued at 6:35 am EST Tuesday 2 September 2014 (issued every 30 minutes, with the page automatically refreshed every 10 minutes)

About weather observations | Map of weather stations | Latest weather observations for VIC | Other Formats
Station Details ID: 089002 Name: BALLARAT AERODROME Lat: -37.51 Lon: 143.79 Height: 435.2 m
Data from the previous 72 hours. | See also: Recent months at Ballarat
Date/Time
EST
Temp
°C
App
Temp
°C
Dew
Point
Rel
Hum
%
Delta-T
°C
Wind Press
QNH
hPa
Press
MSL
hPa
Rain
since 9 am
mm
Dir
 
Spd
km/h
Gust
km/h
Spd
kts
Gust
kts
02/06:30am 5.2 1.2 5.1 99 0.0 SSW 15 22 8 12 1016.6 1016.9 7.2
02/06:00am 5.6 1.4 5.5 99 0.0 SSW 17 24 9 13 1016.3 1016.6 7.2
02/05:58am 5.7 1.5 5.6 99 0.0 SSW 17 24 9 13 1016.2 1016.5 7.2
02/05:30am 5.9 1.7 5.9 100 0.0 SSW 17 22 9 12 1015.8 1016.1 7.2
02/05:00am 5.9 2.1 5.9 100 0.0 SSW 15 28 8 15 1015.3 1015.6 7.0
02/04:30am 5.7 2.3 5.7 100 0.0 SSW 13 19 7 10 1014.9 1015.2 7.0
02/04:13am 5.6 2.1 5.6 100 0.0 SSW 13 17 7 9 1014.8 1015.1 7.0
02/04:01am 5.5 2.4 5.5 100 0.0 SSW 11 15 6 8 1014.6 1014.9 7.0
02/04:00am 5.5 2.4 5.5 100 0.0 SSW 11 15 6 8 1014.6 1014.9 7.0
02/03:30am 5.5 2.0 5.5 100 0.0 SSW 13 19 7 10 1014.6 1014.9 6.2
02/03:00am 5.6 2.5 5.6 100 0.0 SW 11 17 6 9 1014.3 1014.6 6.2
02/02:32am 5.6 1.4 5.6 100 0.0 WSW 17 20 9 11 1014.3 1014.6 6.2
02/02:30am 5.6 1.4 5.6 100 0.0 WSW 17 22 9 12 1014.2 1014.5 6.2
02/02:05am 5.5 1.6 5.5 100 0.0 WSW 15 22 8 12 1014.1 1014.4 6.2
02/02:00am 5.4 1.5 5.4 100 0.0 WSW 15 22 8 12 1014.0 1014.3 6.2
02/01:30am 5.5 3.2 5.5 100 0.0 WSW 7 11 4 6 1014.1 1014.4 6.2
02/01:00am 5.6 2.1 5.6 100 0.0 WSW 13 17 7 9 1014.1 1014.4 6.2
02/12:30am 5.7 1.5 5.7 100 0.0 WSW 17 22 9 12 1013.9 1014.2 6.2
02/12:00am 6.1 2.7 6.1 100 0.0 WSW 13 19 7 10 1013.8 1014.1 6.2
 
Date/Time
EST
Temp
°C
App
Temp
°C
Dew
Point
Rel
Hum
%
Delta-T
°C
Wind Press
QNH
hPa
Press
MSL
hPa
Rain
since 9 am
mm
Dir
 
Spd
km/h
Gust
km/h
Spd
kts
Gust
kts
01/11:30pm 6.3 3.7 6.3 100 0.0 WSW 9 13 5 7 1013.7 1014.0 6.2
01/11:04pm 6.3 3.0 6.3 100 0.0 WSW 13 17 7 9 1013.5 1013.7 6.2
01/11:00pm 6.3 3.4 6.3 100 0.0 WSW 11 15 6 8 1013.5 1013.7 6.2
01/10:58pm 6.3 3.4 6.3 100 0.0 WSW 11 15 6 8 1013.5 1013.7 6.2
01/10:48pm 6.2 4.0 6.2 100 0.0 SW 7 9 4 5 1013.4 1013.6 6.2
01/10:36pm 6.2 3.6 6.2 100 0.0 WSW 9 13 5 7 1013.4 1013.6 5.8
01/10:30pm 6.2 3.2 6.2 100 0.0 SW 11 15 6 8 1013.4 1013.6 5.8
01/10:00pm 5.4 3.2 5.3 99 0.0 W 6 7 3 4 1013.1 1013.4 5.4
01/09:51pm 5.5 3.1 5.4 99 0.0 WSW 7 11 4 6 1013.0 1013.3 5.4
01/09:30pm 6.1 3.5 6.0 99 0.0 SW 9 13 5 7 1012.7 1013.0 5.4
01/09:00pm 5.8 3.5 5.7 99 0.0 SW 7 11 4 6 1012.6 1012.9 5.4
01/08:30pm 5.9 3.6 5.8 99 0.0 SSW 7 9 4 5 1012.4 1012.7 5.4
01/08:00pm 5.9 3.6 5.8 99 0.0 SSW 7 9 4 5 1012.2 1012.5 5.4
01/07:31pm 5.6 3.2 5.3 98 0.1 SSE 7 9 4 5 1011.5 1011.7 5.4
01/07:30pm 5.7 3.3 5.4 98 0.1 SSE 7 9 4 5 1011.5 1011.7 5.4
01/07:11pm 6.5 3.9 6.2 98 0.1 SW 9 11 5 6 1011.5 1011.7 5.4
01/07:00pm 6.6 4.6 6.3 98 0.1 SSW 6 9 3 5 1011.4 1011.6 5.4
01/06:30pm 6.9 3.6 6.6 98 0.1 S 13 17 7 9 1010.9 1011.1 5.4
01/06:00pm 7.0 3.0 6.7 98 0.1 SE 17 22 9 12 1010.1 1010.4 5.4
01/05:30pm 7.0 4.5 6.7 98 0.1 SSW 9 15 5 8 1010.6 1010.9 5.4
01/05:00pm 7.2 2.3 6.9 98 0.1 WSW 22 32 12 17 1010.7 1011.0 4.8
01/04:30pm 7.9 3.5 7.6 98 0.1 SW 20 28 11 15 1010.0 1010.3 4.0
01/04:04pm 8.8 3.1 8.5 98 0.1 S 28 39 15 21 1009.2 1009.4 2.8
01/04:00pm 8.9 7.3 8.6 98 0.1 SSW 7 11 4 6 1009.0 1009.2 2.8
01/03:30pm 10.0 7.7 8.9 93 0.6 W 11 13 6 7 1008.8 1009.0 2.8
01/03:24pm 10.0 8.2 9.4 96 0.3 WNW 9 13 5 7 1008.8 1009.0 2.8
01/03:00pm 9.6 7.8 9.3 98 0.2 W 9 13 5 7 1008.8 1009.0 2.8
01/02:50pm 9.5 7.3 9.2 98 0.2 W 11 15 6 8 1008.9 1009.1 2.8
01/02:30pm 9.2 6.5 9.1 99 0.1 W 13 17 7 9 1009.0 1009.2 2.8
01/02:00pm 8.7 6.3 8.6 99 0.0 WSW 11 15 6 8 1008.9 1009.1 2.6
01/01:34pm 8.3 5.4 8.2 99 0.0 W 13 19 7 10 1009.1 1009.3 2.2
01/01:30pm 8.4 5.2 8.3 99 0.0 W 15 20 8 11 1009.1 1009.3 2.0
01/01:00pm 10.7 7.6 10.4 98 0.2 NW 17 19 9 10 1009.3 1009.5 1.4
01/12:30pm 10.2 7.0 9.9 98 0.2 NNW 17 19 9 10 1009.2 1009.4 1.4
01/12:00pm 9.8 6.5 9.7 99 0.1 NNW 17 24 9 13 1009.3 1009.5 1.4
01/11:50am 9.8 6.5 9.7 99 0.1 N 17 22 9 12 1009.3 1009.5 1.4
01/11:30am 9.5 6.5 9.4 99 0.1 N 15 20 8 11 1009.4 1009.6 1.4
01/11:00am 9.2 6.2 9.1 99 0.1 N 15 19 8 10 1009.2 1009.4 1.4
01/10:30am 8.5 5.7 8.4 99 0.0 N 13 15 7 8 1009.2 1009.4 1.4
01/10:00am 8.1 4.4 8.0 99 0.0 N 17 24 9 13 1009.5 1009.7 1.4
01/09:30am 7.5 3.6 7.2 98 0.1 N 17 20 9 11 1009.6 1010.2 1.0
01/09:00am 7.4 2.9 7.1 98 0.1 NNE 20 24 11 13 1009.5 1010.1 4.2
01/08:30am 7.6 4.1 7.3 98 0.1 N 15 20 8 11 1009.8 1010.4 2.2
01/08:00am 7.9 5.8 6.7 92 0.6 NW 7 9 4 5 1009.3 1009.9 0.8
01/07:30am 8.1 4.2 5.4 83 1.2 N 15 20 8 11 1009.2 1009.8 0.2
01/07:00am 8.5 3.5 4.5 76 1.8 N 20 28 11 15 1009.2 1009.8 0.0
01/06:30am 9.8 3.8 3.3 64 2.9 N 24 32 13 17 1008.8 1009.3 0.0
01/06:00am 10.0 3.6 3.1 62 3.1 N 26 35 14 19 1008.5 1009.0 0.0
01/05:30am 10.2 3.4 3.0 61 3.2 N 28 33 15 18 1008.4 1008.9 0.0
01/05:00am 9.8 3.4 3.3 64 2.9 N 26 35 14 19 1008.5 1009.0 0.0
01/04:30am 10.1 3.4 3.6 64 2.9 N 28 35 15 19 1008.9 1009.4 0.0
01/04:00am 9.8 3.2 4.2 68 2.5 N 28 33 15 18 1008.5 1009.0 0.0
01/03:30am 11.2 3.7 3.3 58 3.6 N 32 41 17 22 1007.9 1008.5 0.0
01/03:00am 11.7 4.0 3.2 56 3.8 N 33 41 18 22 1007.9 1008.5 0.0
01/02:30am 11.3 4.0 4.3 62 3.2 N 32 44 17 24 1008.5 1009.0 0.0
01/02:00am 10.4 5.5 5.2 70 2.4 N 20 28 11 15 1009.5 1010.1 0.0
01/01:30am 10.4 4.4 5.4 71 2.3 N 26 32 14 17 1009.7 1010.3 0.0
01/01:00am 10.3 4.3 5.5 72 2.3 N 26 33 14 18 1010.1 1010.7 0.0
01/12:30am 10.9 5.0 5.7 70 2.5 N 26 33 14 18 1010.1 1010.7 0.0
01/12:00am 11.4 5.9 5.9 69 2.6 N 24 33 13 18 1010.6 1011.2 0.0
 
Date/Time
EST
Temp
°C
App
Temp
°C
Dew
Point
Rel
Hum
%
Delta-T
°C
Wind Press
QNH
hPa
Press
MSL
hPa
Rain
since 9 am
mm
Dir
 
Spd
km/h
Gust
km/h
Spd
kts
Gust
kts
31/11:30pm 11.5 5.2 5.8 68 2.7 N 28 35 15 19 1010.9 1011.4 0.0
31/11:00pm 12.9 6.5 5.3 60 3.6 N 28 35 15 19 1011.1 1011.7 0.0
31/10:30pm 13.7 7.7 5.1 56 4.1 N 26 35 14 19 1011.4 1012.0 0.0
31/10:00pm 14.2 7.8 5.0 54 4.4 NNE 28 37 15 20 1011.2 1011.8 0.0
31/09:30pm 14.7 7.3 5.0 52 4.7 NNE 33 41 18 22 1011.6 1012.2 0.0
31/09:00pm 14.2 8.0 6.1 58 4.0 NNE 28 37 15 20 1011.9 1012.5 0.0
31/08:30pm 13.8 8.8 6.4 61 3.6 NNE 22 26 12 14 1012.7 1013.3 0.0
31/08:00pm 14.1 8.7 6.5 60 3.8 N 24 30 13 16 1013.1 1013.8 0.0
31/07:30pm 14.0 9.0 6.4 60 3.7 N 22 30 12 16 1013.1 1013.8 0.0
31/07:00pm 14.3 8.9 6.2 58 4.0 N 24 33 13 18 1013.0 1013.7 0.0
31/06:30pm 14.4 9.0 6.3 58 4.0 N 24 32 13 17 1013.0 1013.7 0.0
31/06:00pm 14.1 8.8 6.9 62 3.6 N 24 32 13 17 1013.0 1013.7 0.0
31/05:30pm 14.5 8.9 7.3 62 3.6 NNE 26 33 14 18 1013.0 1013.7 0.0
31/05:00pm 14.5 10.2 7.8 64 3.4 N 20 26 11 14 1013.6 1014.2 0.0
31/04:30pm 15.0 10.3 7.8 62 3.7 N 22 28 12 15 1013.6 1014.2 0.0
31/04:00pm 15.2 8.5 7.2 59 4.0 N 32 39 17 21 1013.8 1014.4 0.0
31/03:30pm 15.3 9.1 7.8 61 3.8 N 30 41 16 22 1014.2 1014.8 0.0
31/03:00pm 15.7 9.0 7.5 58 4.2 N 32 39 17 21 1014.3 1014.9 0.0
31/02:30pm 15.7 8.9 7.0 56 4.4 N 32 41 17 22 1014.7 1015.3 0.0
31/02:00pm 15.9 9.1 6.9 55 4.5 N 32 39 17 21 1015.0 1015.7 0.0
31/01:30pm 15.9 8.9 6.1 52 4.9 N 32 41 17 22 1015.4 1016.1 0.0
31/01:00pm 15.8 9.7 6.8 55 4.5 N 28 37 15 20 1016.1 1016.7 0.0
31/12:30pm 15.0 8.8 6.0 55 4.4 N 28 37 15 20 1016.6 1017.2 0.0
31/12:00pm 14.3 7.5 5.1 54 4.4 N 30 39 16 21 1017.1 1017.8 0.0
31/11:30am 14.2 6.5 5.3 55 4.3 NNE 35 44 19 24 1017.5 1018.2 0.0
31/11:00am 14.1 5.9 4.7 53 4.5 N 37 48 20 26 1017.9 1018.6 0.0
31/10:30am 14.4 7.2 5.7 56 4.2 N 33 43 18 23 1018.4 1019.0 0.0
31/10:00am 13.6 6.6 6.0 60 3.7 N 32 39 17 21 1018.7 1019.3 0.0
31/09:30am 12.7 5.6 5.4 61 3.5 NNE 32 43 17 23 1018.8 1019.5 0.0
31/09:00am 12.2 5.5 5.8 65 3.1 NNE 30 35 16 19 1019.0 1019.7 0.0
31/08:30am 11.2 4.8 5.3 67 2.8 NNE 28 35 15 19 1019.1 1019.8 0.0
31/08:00am 10.5 5.3 5.5 71 2.3 NNE 22 28 12 15 1019.2 1019.9 0.0
31/07:30am 9.6 3.2 5.4 75 2.0 NNE 28 35 15 19 1019.2 1019.9 0.0
31/07:00am 8.8 3.7 6.1 83 1.3 NNE 22 28 12 15 1019.2 1019.9 0.0
31/06:30am 8.2 3.7 6.3 88 0.9 NNE 19 24 10 13 1019.2 1019.9 0.0
31/06:00am 8.0 3.6 6.6 91 0.7 NNE 19 24 10 13 1019.3 1020.0 0.0
31/05:30am 8.5 3.6 6.8 89 0.8 NNE 22 28 12 15 1019.0 1019.7 0.0
31/05:00am 8.4 4.0 6.5 88 0.9 NNE 19 22 10 12 1019.1 1019.8 0.0
31/04:30am 9.1 4.7 7.2 88 0.9 NNE 20 28 11 15 1018.6 1019.2 0.0
31/04:00am 8.5 4.2 7.0 90 0.7 NNE 19 24 10 13 1018.8 1019.5 0.0
31/03:30am 8.9 4.4 7.0 88 0.9 NNE 20 24 11 13 1019.2 1019.9 0.0
31/03:00am 8.8 4.6 7.3 90 0.7 NNE 19 22 10 12 1019.4 1020.1 0.0
31/02:30am 8.9 5.5 7.7 92 0.6 NNE 15 20 8 11 1019.6 1020.3 0.0
31/02:00am 8.9 5.1 7.4 90 0.7 NNE 17 20 9 11 1019.8 1020.5 0.0
31/01:30am 8.7 4.8 7.2 90 0.7 NNE 17 20 9 11 1019.9 1020.6 0.0
31/01:00am 9.1 4.7 7.5 90 0.8 NNE 20 24 11 13 1020.2 1020.9 0.0
31/12:30am 8.4 4.5 7.2 92 0.6 NNE 17 19 9 10 1020.4 1021.1 0.0
31/12:00am 8.2 4.3 7.1 93 0.5 NNE 17 19 9 10 1020.8 1021.5 0.0
 
Date/Time
EST
Temp
°C
App
Temp
°C
Dew
Point
Rel
Hum
%
Delta-T
°C
Wind Press
QNH
hPa
Press
MSL
hPa
Rain
since 9 am
mm
Dir
 
Spd
km/h
Gust
km/h
Spd
kts
Gust
kts
30/11:30pm 7.2 3.8 6.1 93 0.5 NNE 13 13 7 7 1021.1 1021.8 0.0
30/11:00pm 8.0 4.4 6.8 92 0.6 NNE 15 17 8 9 1021.3 1022.0 0.0
30/10:30pm 8.2 4.5 6.5 89 0.8 NNE 15 17 8 9 1021.6 1022.3 0.0
30/10:00pm 9.1 5.2 7.1 87 1.0 NNE 17 19 9 10 1021.8 1022.5 0.0
30/09:30pm 8.8 5.4 7.6 92 0.6 NE 15 17 8 9 1022.1 1022.8 0.0
30/09:00pm 7.7 5.2 6.6 93 0.5 NNE 9 11 5 6 1022.2 1022.9 0.0
30/08:30pm 7.8 5.2 5.9 88 0.9 NNE 9 9 5 5 1022.2 1022.9 0.0
30/08:00pm 8.5 5.5 6.1 85 1.1 NNE 11 11 6 6 1022.2 1022.9 0.0
30/07:30pm 9.7 6.5 7.0 83 1.3 NNE 13 15 7 8 1022.0 1022.7 0.0
30/07:00pm 10.2 6.7 7.1 81 1.5 NE 15 15 8 8 1021.9 1022.6 0.0
30/06:30pm 11.1 8.0 7.2 77 1.9 NNE 13 17 7 9 1021.8 1022.5 0.0
30/06:00pm 11.9 8.4 7.4 74 2.2 NNE 15 17 8 9 1021.8 1022.5 0.0
30/05:30pm 13.7 10.0 8.1 69 2.8 NNE 17 20 9 11 1021.8 1022.5 0.0
30/05:00pm 14.8 10.9 8.5 66 3.2 N 19 22 10 12 1022.0 1022.7 0.0
30/04:30pm 15.6 12.1 8.8 64 3.6 N 17 24 9 13 1022.0 1022.7 0.0
30/04:00pm 15.9 11.5 8.9 63 3.7 NNE 22 26 12 14 1021.9 1022.6 0.0
30/03:30pm 15.9 11.4 8.6 62 3.8 N 22 28 12 15 1021.9 1022.6 0.0
30/03:00pm 16.3 12.0 9.3 63 3.7 N 22 30 12 16 1022.1 1022.8 0.0
30/02:30pm 15.9 11.1 8.9 63 3.7 N 24 32 13 17 1022.3 1023.0 0.0
30/02:00pm 15.5 10.2 8.3 62 3.7 N 26 33 14 18 1022.6 1023.3 0.0
30/01:30pm 15.2 9.7 7.7 61 3.8 N 26 33 14 18 1023.0 1023.7 0.0
30/01:00pm 15.1 9.3 7.9 62 3.7 N 28 37 15 20 1023.4 1024.1 0.0
30/12:30pm 14.8 8.7 8.1 64 3.4 N 30 37 16 20 1023.8 1024.5 0.0
30/12:00pm 14.9 9.4 9.3 69 2.9 N 28 37 15 20 1024.2 1024.9 0.0
30/11:30am 13.9 8.0 8.9 72 2.6 N 30 37 16 20 1024.5 1025.2 0.0
30/11:00am 13.0 7.4 8.7 75 2.2 N 28 37 15 20 1024.7 1025.5 0.0
30/10:30am 13.4 8.8 9.5 77 2.0 N 24 32 13 17 1024.8 1025.6 0.0
30/10:00am 12.5 7.8 9.1 80 1.7 N 24 30 13 16 1025.0 1025.8 0.0
30/09:30am 11.3 6.1 8.7 84 1.3 N 26 32 14 17 1025.2 1026.0 0.0
30/09:00am 9.9 7.8 9.6 98 0.2 N 11 15 6 8 1025.5 1026.2 0.0
30/08:30am 7.3 5.5 7.3 100 0.0 NNW 6 7 3 4 1025.6 1026.3 0.0
30/08:00am 5.2 3.0 5.2 100 0.0 NNE 6 7 3 4 1025.5 1026.2 0.0
30/07:50am 3.4 2.0 3.3 99 0.0 CALM 0 0 0 0 1025.5 1026.2 0.0
30/07:30am 1.5 -0.3 1.4 99 0.0 CALM 0 0 0 0 1025.3 1026.1 0.0
30/07:18am 1.0 -0.8 0.9 99 0.0 CALM 0 0 0 0 1025.2 1026.0 0.0
30/07:00am 0.7 -1.2 0.6 99 0.0 CALM 0 0 0 0 1025.1 1025.9 0.0
30/06:45am 0.8 -1.1 0.7 99 0.0 CALM 0 0 0 0 1025.1 1025.9 0.0
30/06:39am 1.0 -0.8 0.9 99 0.0 CALM 0 0 0 0 1025.0 1025.8 0.0

Other Formats:

Comma delimited format used in spreadsheet applications
http://www.bom.gov.au/fwo/IDV60801/IDV60801.94852.axf

JavaScript Object Notation format (JSON) in row-major order
http://www.bom.gov.au/fwo/IDV60801/IDV60801.94852.json